Detall de PIREP

Printer-friendly versionPDF version

[2014/01/19 08:59:00]
Flight IATA:CT2313
Pilot Number:044
Company ICAO:CAT
Aircraft Type:AT72/F
PAX:39
Departing Airport: LIBP
Destination Airport: LIEA
Alternate Airport:LIEO
Online: VATSIM
Route:ORVID Z924 KOLUS M603 MOROB
Flight Level:F190
No Slew and time accel
No pause
Crash detect
Detect pilot in Cockpit between each 30 and 45 minutes
08:59 Zero fuel Weight: 39664 Lbs, Fuel Weight: 4457 Lbs
08:59 VATSIM:LIBP 190750Z VRB02KT 9999 FEW020 SCT070 10/05 Q1005
08:59 VATSIM:LIEA 190850Z 13006KT 9999 SCT020TCU BKN030 13/12 Q1000
08:59 VOICE CATALONIAN
09:01 Parking Brakes off
09:09 Take-off
09:09 Take off Weight: 44028 Lbs
09:09 Wind: 136º @ 000 Knots Heading: 035º
09:09 POS N42º 25´ 57´´ E014º 11´ 03´´
09:09 Flaps:1 at 130 Knots
09:09 Gear Up: 131 Knots
09:09 Flaps:0 at 110 Knots
09:22 TOC
09:22 Fuel Weight: 3941 Lb
09:24 Wind:120º@028 Knots Heading: 245º Ground Speed: 281 Knots Altitude 18753 ft
09:39 Wind:133º@051 Knots Heading: 225º Ground Speed: 291 Knots Altitude 18723 ft
09:54 Wind:145º@034 Knots Heading: 243º Ground Speed: 295 Knots Altitude 18645 ft
09:56 Gear Down: 219 Knots
09:56 Gear Up: 198 Knots
10:01 TOD
10:01 Fuel Weight: 2746 Lb
10:09 Wind:133º@009 Knots Heading: 261º Ground Speed: 230 Knots Altitude 8320 ft
10:22 Flaps:1 at 151 Knots
10:22 Flaps:2 at 158 Knots
10:22 Gear Down: 153 Knots
10:24 Wind:144º@003 Knots Heading: 202º Ground Speed: 156 Knots Altitude 1748 ft
10:26 TouchDown:Rate -129 ft/min Speed: 115 Knots
10:26 VATSIM:LIEA 191020Z 14003KT 110V190 9999 SCT020 BKN030 13/11 Q1000
10:26 Land
10:26 Wind:147º@003 Knots
10:26 Heading: 201º
10:26 Flight Duration: 01:17
10:26 Landing Weight: 42145 Lbs
10:26 POS N40º 37´ 47´´ E008º 17´ 22´´
10:28 Parking brakes on
10:28 Block to Block Duration: 01:27
10:28 Final Fuel: 2464 Lbls
10:28 Spent Fuel: 1992 Lbls
10:28 Flight Length: 318 NM
10:28 TOD Land Length: 84 NM

Exportar CSV

Powered by Drupal - Modified by Danger4k